sensor_id;sensor_type;location;lat;lon;timestamp;temperature;humidity
12885;DHT22;6510;51.362;7.370;2023-05-07T00:01:11;13.50;99.90
12885;DHT22;6510;51.362;7.370;2023-05-07T00:03:37;13.50;99.90
12885;DHT22;6510;51.362;7.370;2023-05-07T00:06:03;13.40;99.90
12885;DHT22;6510;51.362;7.370;2023-05-07T00:08:29;13.40;99.90
12885;DHT22;6510;51.362;7.370;2023-05-07T00:10:54;13.50;99.90
12885;DHT22;6510;51.362;7.370;2023-05-07T00:13:20;13.50;99.90
12885;DHT22;6510;51.362;7.370;2023-05-07T00:15:46;13.50;99.90
12885;DHT22;6510;51.362;7.370;2023-05-07T00:18:11;13.60;99.90
12885;DHT22;6510;51.362;7.370;2023-05-07T00:20:37;13.60;99.90
12885;DHT22;6510;51.362;7.370;2023-05-07T00:23:02;13.70;99.90
12885;DHT22;6510;51.362;7.370;2023-05-07T00:25:28;13.70;99.90
12885;DHT22;6510;51.362;7.370;2023-05-07T00:27:54;13.80;99.90
12885;DHT22;6510;51.362;7.370;2023-05-07T00:30:19;13.90;99.90
12885;DHT22;6510;51.362;7.370;2023-05-07T00:32:45;13.90;99.90
12885;DHT22;6510;51.362;7.370;2023-05-07T00:35:11;14.00;99.90
12885;DHT22;6510;51.362;7.370;2023-05-07T00:37:37;14.00;99.90
12885;DHT22;6510;51.362;7.370;2023-05-07T00:40:03;14.00;99.90
12885;DHT22;6510;51.362;7.370;2023-05-07T00:42:32;13.90;99.90
12885;DHT22;6510;51.362;7.370;2023-05-07T00:44:58;13.70;99.90
12885;DHT22;6510;51.362;7.370;2023-05-07T00:47:25;13.70;99.90
12885;DHT22;6510;51.362;7.370;2023-05-07T00:49:51;13.70;99.90
12885;DHT22;6510;51.362;7.370;2023-05-07T00:52:17;13.70;99.90
12885;DHT22;6510;51.362;7.370;2023-05-07T00:54:45;13.70;99.90
12885;DHT22;6510;51.362;7.370;2023-05-07T00:57:11;13.70;99.90
12885;DHT22;6510;51.362;7.370;2023-05-07T00:59:36;13.60;99.90
12885;DHT22;6510;51.362;7.370;2023-05-07T01:02:02;13.50;99.90
12885;DHT22;6510;51.362;7.370;2023-05-07T01:04:29;13.50;99.90
12885;DHT22;6510;51.362;7.370;2023-05-07T01:06:56;13.60;99.90
12885;DHT22;6510;51.362;7.370;2023-05-07T01:09:24;13.60;99.90
12885;DHT22;6510;51.362;7.370;2023-05-07T01:11:50;13.50;99.90
12885;DHT22;6510;51.362;7.370;2023-05-07T01:14:17;13.60;99.90
12885;DHT22;6510;51.362;7.370;2023-05-07T01:16:43;13.50;99.90
12885;DHT22;6510;51.362;7.370;2023-05-07T01:19:09;13.50;99.90
12885;DHT22;6510;51.362;7.370;2023-05-07T01:21:37;13.50;99.90
12885;DHT22;6510;51.362;7.370;2023-05-07T01:24:04;13.50;99.90
12885;DHT22;6510;51.362;7.370;2023-05-07T01:26:30;13.50;99.90
12885;DHT22;6510;51.362;7.370;2023-05-07T01:28:56;13.50;99.90
12885;DHT22;6510;51.362;7.370;2023-05-07T01:31:24;13.50;99.90
12885;DHT22;6510;51.362;7.370;2023-05-07T01:33:52;13.40;99.90
12885;DHT22;6510;51.362;7.370;2023-05-07T01:36:20;13.40;99.90
12885;DHT22;6510;51.362;7.370;2023-05-07T01:38:49;13.40;99.90
12885;DHT22;6510;51.362;7.370;2023-05-07T01:41:15;13.30;99.90
12885;DHT22;6510;51.362;7.370;2023-05-07T01:43:41;13.40;99.90
12885;DHT22;6510;51.362;7.370;2023-05-07T01:46:08;13.30;99.90
12885;DHT22;6510;51.362;7.370;2023-05-07T01:48:35;13.30;99.90
12885;DHT22;6510;51.362;7.370;2023-05-07T01:51:01;13.30;99.90
12885;DHT22;6510;51.362;7.370;2023-05-07T01:53:28;13.40;99.90
12885;DHT22;6510;51.362;7.370;2023-05-07T01:55:53;13.40;99.90
12885;DHT22;6510;51.362;7.370;2023-05-07T01:58:19;13.40;99.90
12885;DHT22;6510;51.362;7.370;2023-05-07T02:00:45;13.40;99.90
12885;DHT22;6510;51.362;7.370;2023-05-07T02:03:10;13.40;99.90
12885;DHT22;6510;51.362;7.370;2023-05-07T02:05:36;13.40;99.90
12885;DHT22;6510;51.362;7.370;2023-05-07T02:08:02;13.40;99.90
12885;DHT22;6510;51.362;7.370;2023-05-07T02:10:27;13.30;99.90
12885;DHT22;6510;51.362;7.370;2023-05-07T02:12:53;13.30;99.90
12885;DHT22;6510;51.362;7.370;2023-05-07T02:15:19;13.20;99.90
12885;DHT22;6510;51.362;7.370;2023-05-07T02:18:01;13.10;99.90
12885;DHT22;6510;51.362;7.370;2023-05-07T02:20:27;13.10;99.90
12885;DHT22;6510;51.362;7.370;2023-05-07T02:22:52;13.10;99.90
12885;DHT22;6510;51.362;7.370;2023-05-07T02:25:18;13.20;99.90
12885;DHT22;6510;51.362;7.370;2023-05-07T02:27:44;13.10;99.90
12885;DHT22;6510;51.362;7.370;2023-05-07T02:30:10;13.10;99.90
12885;DHT22;6510;51.362;7.370;2023-05-07T02:32:35;13.00;99.90
12885;DHT22;6510;51.362;7.370;2023-05-07T02:35:01;13.00;99.90
12885;DHT22;6510;51.362;7.370;2023-05-07T02:37:26;12.80;99.90
12885;DHT22;6510;51.362;7.370;2023-05-07T02:39:52;12.80;99.90
12885;DHT22;6510;51.362;7.370;2023-05-07T02:42:18;12.80;99.90
12885;DHT22;6510;51.362;7.370;2023-05-07T02:44:43;12.80;99.90
12885;DHT22;6510;51.362;7.370;2023-05-07T02:47:09;12.80;99.90
12885;DHT22;6510;51.362;7.370;2023-05-07T02:49:35;12.70;99.90
12885;DHT22;6510;51.362;7.370;2023-05-07T02:52:01;12.70;99.90
12885;DHT22;6510;51.362;7.370;2023-05-07T02:54:26;12.70;99.90
12885;DHT22;6510;51.362;7.370;2023-05-07T02:56:52;12.70;99.90
12885;DHT22;6510;51.362;7.370;2023-05-07T02:59:17;12.70;99.90
12885;DHT22;6510;51.362;7.370;2023-05-07T03:01:43;12.70;99.90
12885;DHT22;6510;51.362;7.370;2023-05-07T03:04:10;12.70;99.90
12885;DHT22;6510;51.362;7.370;2023-05-07T03:06:36;12.70;99.90
12885;DHT22;6510;51.362;7.370;2023-05-07T03:09:02;12.60;99.90
12885;DHT22;6510;51.362;7.370;2023-05-07T03:11:28;12.60;99.90
12885;DHT22;6510;51.362;7.370;2023-05-07T03:13:54;12.60;99.90
12885;DHT22;6510;51.362;7.370;2023-05-07T03:16:19;12.60;99.90
12885;DHT22;6510;51.362;7.370;2023-05-07T03:18:45;12.60;99.90
12885;DHT22;6510;51.362;7.370;2023-05-07T03:21:11;12.60;99.90
12885;DHT22;6510;51.362;7.370;2023-05-07T03:23:36;12.60;99.90
12885;DHT22;6510;51.362;7.370;2023-05-07T03:26:02;12.70;99.90
12885;DHT22;6510;51.362;7.370;2023-05-07T03:28:28;12.80;99.90
12885;DHT22;6510;51.362;7.370;2023-05-07T03:30:53;12.80;99.90
12885;DHT22;6510;51.362;7.370;2023-05-07T03:33:19;12.80;99.90
12885;DHT22;6510;51.362;7.370;2023-05-07T03:35:44;12.90;99.90
12885;DHT22;6510;51.362;7.370;2023-05-07T03:38:10;12.80;99.90
12885;DHT22;6510;51.362;7.370;2023-05-07T03:40:36;12.80;99.90
12885;DHT22;6510;51.362;7.370;2023-05-07T03:43:02;12.80;99.90
12885;DHT22;6510;51.362;7.370;2023-05-07T03:45:27;12.80;99.90
12885;DHT22;6510;51.362;7.370;2023-05-07T03:47:53;12.80;99.90
12885;DHT22;6510;51.362;7.370;2023-05-07T03:50:19;12.80;99.90
12885;DHT22;6510;51.362;7.370;2023-05-07T03:52:44;12.80;99.90
12885;DHT22;6510;51.362;7.370;2023-05-07T03:55:10;12.80;99.90
12885;DHT22;6510;51.362;7.370;2023-05-07T03:57:36;12.90;99.90
12885;DHT22;6510;51.362;7.370;2023-05-07T04:00:02;12.90;99.90
12885;DHT22;6510;51.362;7.370;2023-05-07T04:02:29;12.90;99.90
12885;DHT22;6510;51.362;7.370;2023-05-07T04:04:54;13.00;99.90
12885;DHT22;6510;51.362;7.370;2023-05-07T04:07:20;13.00;99.90
12885;DHT22;6510;51.362;7.370;2023-05-07T04:09:45;13.00;99.90
12885;DHT22;6510;51.362;7.370;2023-05-07T04:12:11;13.10;99.90
12885;DHT22;6510;51.362;7.370;2023-05-07T04:14:37;13.00;99.90
12885;DHT22;6510;51.362;7.370;2023-05-07T04:17:02;13.00;99.90
12885;DHT22;6510;51.362;7.370;2023-05-07T04:19:28;13.00;99.90
12885;DHT22;6510;51.362;7.370;2023-05-07T04:21:53;12.90;99.90
12885;DHT22;6510;51.362;7.370;2023-05-07T04:24:19;12.90;99.90
12885;DHT22;6510;51.362;7.370;2023-05-07T04:26:45;12.80;99.90
12885;DHT22;6510;51.362;7.370;2023-05-07T04:29:11;12.90;99.90
12885;DHT22;6510;51.362;7.370;2023-05-07T04:31:37;12.90;99.90
12885;DHT22;6510;51.362;7.370;2023-05-07T04:34:02;12.90;99.90
12885;DHT22;6510;51.362;7.370;2023-05-07T04:36:28;12.90;99.90
12885;DHT22;6510;51.362;7.370;2023-05-07T04:38:54;12.90;99.90
12885;DHT22;6510;51.362;7.370;2023-05-07T04:41:20;13.00;99.90
12885;DHT22;6510;51.362;7.370;2023-05-07T04:43:46;12.90;99.90
12885;DHT22;6510;51.362;7.370;2023-05-07T04:46:11;13.00;99.90
12885;DHT22;6510;51.362;7.370;2023-05-07T04:48:37;13.10;99.90
12885;DHT22;6510;51.362;7.370;2023-05-07T04:51:03;13.00;99.90
12885;DHT22;6510;51.362;7.370;2023-05-07T04:53:28;13.10;99.90
12885;DHT22;6510;51.362;7.370;2023-05-07T04:55:58;13.20;99.90
12885;DHT22;6510;51.362;7.370;2023-05-07T04:58:24;13.20;99.90
12885;DHT22;6510;51.362;7.370;2023-05-07T05:00:49;13.30;99.90
12885;DHT22;6510;51.362;7.370;2023-05-07T05:03:15;13.40;99.90
12885;DHT22;6510;51.362;7.370;2023-05-07T05:05:40;13.40;99.90
12885;DHT22;6510;51.362;7.370;2023-05-07T05:08:06;13.50;99.90
12885;DHT22;6510;51.362;7.370;2023-05-07T05:10:32;13.70;99.90
12885;DHT22;6510;51.362;7.370;2023-05-07T05:12:57;13.80;99.90
12885;DHT22;6510;51.362;7.370;2023-05-07T05:15:23;13.70;99.90
12885;DHT22;6510;51.362;7.370;2023-05-07T05:17:49;13.80;99.90
12885;DHT22;6510;51.362;7.370;2023-05-07T05:20:14;13.80;99.90
12885;DHT22;6510;51.362;7.370;2023-05-07T05:22:41;14.20;99.90
12885;DHT22;6510;51.362;7.370;2023-05-07T05:25:07;14.70;99.90
12885;DHT22;6510;51.362;7.370;2023-05-07T05:27:33;14.70;99.90
12885;DHT22;6510;51.362;7.370;2023-05-07T05:29:59;14.40;99.90
12885;DHT22;6510;51.362;7.370;2023-05-07T05:32:25;14.40;99.90
12885;DHT22;6510;51.362;7.370;2023-05-07T05:34:51;14.40;99.90
12885;DHT22;6510;51.362;7.370;2023-05-07T05:37:16;14.30;99.90
12885;DHT22;6510;51.362;7.370;2023-05-07T05:39:42;14.30;99.90
12885;DHT22;6510;51.362;7.370;2023-05-07T05:42:08;14.30;99.90
12885;DHT22;6510;51.362;7.370;2023-05-07T05:44:33;14.20;99.90
12885;DHT22;6510;51.362;7.370;2023-05-07T05:46:59;14.30;99.90
12885;DHT22;6510;51.362;7.370;2023-05-07T05:49:25;14.50;99.90
12885;DHT22;6510;51.362;7.370;2023-05-07T05:51:51;14.70;99.90
12885;DHT22;6510;51.362;7.370;2023-05-07T05:54:16;14.90;99.90
12885;DHT22;6510;51.362;7.370;2023-05-07T05:56:42;14.90;99.90
12885;DHT22;6510;51.362;7.370;2023-05-07T05:59:08;15.40;99.90
12885;DHT22;6510;51.362;7.370;2023-05-07T06:01:33;15.70;99.90
12885;DHT22;6510;51.362;7.370;2023-05-07T06:03:59;15.60;99.90
12885;DHT22;6510;51.362;7.370;2023-05-07T06:06:25;15.60;99.90
12885;DHT22;6510;51.362;7.370;2023-05-07T06:08:51;15.80;99.90
12885;DHT22;6510;51.362;7.370;2023-05-07T06:11:16;16.70;99.90
12885;DHT22;6510;51.362;7.370;2023-05-07T06:13:42;16.80;99.90
12885;DHT22;6510;51.362;7.370;2023-05-07T06:16:07;17.90;99.90
12885;DHT22;6510;51.362;7.370;2023-05-07T06:18:33;18.10;99.90
12885;DHT22;6510;51.362;7.370;2023-05-07T06:21:01;16.80;99.90
12885;DHT22;6510;51.362;7.370;2023-05-07T06:23:27;17.20;99.90
12885;DHT22;6510;51.362;7.370;2023-05-07T06:25:52;17.40;99.90
12885;DHT22;6510;51.362;7.370;2023-05-07T06:28:18;18.30;99.90
12885;DHT22;6510;51.362;7.370;2023-05-07T06:30:44;18.00;99.90
12885;DHT22;6510;51.362;7.370;2023-05-07T06:33:09;17.70;99.90
12885;DHT22;6510;51.362;7.370;2023-05-07T06:35:35;17.40;99.90
12885;DHT22;6510;51.362;7.370;2023-05-07T06:38:00;17.40;99.90
12885;DHT22;6510;51.362;7.370;2023-05-07T06:40:27;17.20;99.90
12885;DHT22;6510;51.362;7.370;2023-05-07T06:42:52;16.80;99.90
12885;DHT22;6510;51.362;7.370;2023-05-07T06:45:19;16.80;99.90
12885;DHT22;6510;51.362;7.370;2023-05-07T06:47:45;17.10;99.90
12885;DHT22;6510;51.362;7.370;2023-05-07T06:50:10;17.10;99.90
12885;DHT22;6510;51.362;7.370;2023-05-07T06:52:36;17.30;99.90
12885;DHT22;6510;51.362;7.370;2023-05-07T06:55:02;17.40;99.90
12885;DHT22;6510;51.362;7.370;2023-05-07T06:57:27;17.20;99.90
12885;DHT22;6510;51.362;7.370;2023-05-07T06:59:53;17.20;99.90
12885;DHT22;6510;51.362;7.370;2023-05-07T07:02:19;17.20;99.90
12885;DHT22;6510;51.362;7.370;2023-05-07T07:04:44;17.20;99.90
12885;DHT22;6510;51.362;7.370;2023-05-07T07:07:10;17.40;99.90
12885;DHT22;6510;51.362;7.370;2023-05-07T07:09:36;17.50;99.90
12885;DHT22;6510;51.362;7.370;2023-05-07T07:12:01;17.30;99.90
12885;DHT22;6510;51.362;7.370;2023-05-07T07:14:27;17.40;99.90
12885;DHT22;6510;51.362;7.370;2023-05-07T07:16:53;17.50;99.90
12885;DHT22;6510;51.362;7.370;2023-05-07T07:19:18;17.50;99.90
12885;DHT22;6510;51.362;7.370;2023-05-07T07:21:45;17.80;99.90
12885;DHT22;6510;51.362;7.370;2023-05-07T07:24:11;17.70;99.90
12885;DHT22;6510;51.362;7.370;2023-05-07T07:26:37;17.60;99.90
12885;DHT22;6510;51.362;7.370;2023-05-07T07:29:03;17.50;99.90
12885;DHT22;6510;51.362;7.370;2023-05-07T07:31:28;17.50;99.90
12885;DHT22;6510;51.362;7.370;2023-05-07T07:33:56;17.40;99.90
12885;DHT22;6510;51.362;7.370;2023-05-07T07:36:22;17.50;99.90
12885;DHT22;6510;51.362;7.370;2023-05-07T07:38:47;17.40;99.90
12885;DHT22;6510;51.362;7.370;2023-05-07T07:41:13;17.40;99.90
12885;DHT22;6510;51.362;7.370;2023-05-07T07:43:38;17.30;99.90
12885;DHT22;6510;51.362;7.370;2023-05-07T07:46:04;17.40;99.90
12885;DHT22;6510;51.362;7.370;2023-05-07T07:48:30;17.30;99.90
12885;DHT22;6510;51.362;7.370;2023-05-07T07:50:56;17.20;99.90
12885;DHT22;6510;51.362;7.370;2023-05-07T07:53:21;17.50;99.90
12885;DHT22;6510;51.362;7.370;2023-05-07T07:55:47;18.20;99.90
12885;DHT22;6510;51.362;7.370;2023-05-07T07:58:12;18.50;99.90
12885;DHT22;6510;51.362;7.370;2023-05-07T08:00:38;18.50;99.90
12885;DHT22;6510;51.362;7.370;2023-05-07T08:03:04;18.80;99.90
12885;DHT22;6510;51.362;7.370;2023-05-07T08:05:30;19.10;99.90
12885;DHT22;6510;51.362;7.370;2023-05-07T08:07:56;18.70;99.90
12885;DHT22;6510;51.362;7.370;2023-05-07T08:10:21;18.80;99.90
12885;DHT22;6510;51.362;7.370;2023-05-07T08:12:50;19.10;99.90
12885;DHT22;6510;51.362;7.370;2023-05-07T08:15:17;18.80;99.90
12885;DHT22;6510;51.362;7.370;2023-05-07T08:17:42;18.90;99.90
12885;DHT22;6510;51.362;7.370;2023-05-07T08:20:08;20.10;99.90
12885;DHT22;6510;51.362;7.370;2023-05-07T08:22:35;21.10;99.90
12885;DHT22;6510;51.362;7.370;2023-05-07T08:25:01;21.70;99.90
12885;DHT22;6510;51.362;7.370;2023-05-07T08:27:27;21.50;99.90
12885;DHT22;6510;51.362;7.370;2023-05-07T08:29:53;22.10;99.90
12885;DHT22;6510;51.362;7.370;2023-05-07T08:32:18;22.50;99.90
12885;DHT22;6510;51.362;7.370;2023-05-07T08:34:44;22.90;99.90
12885;DHT22;6510;51.362;7.370;2023-05-07T08:37:10;23.20;99.90
12885;DHT22;6510;51.362;7.370;2023-05-07T08:39:35;23.00;99.90
12885;DHT22;6510;51.362;7.370;2023-05-07T08:42:01;23.30;99.90
12885;DHT22;6510;51.362;7.370;2023-05-07T08:44:33;23.20;99.90
12885;DHT22;6510;51.362;7.370;2023-05-07T08:47:01;23.00;99.90
12885;DHT22;6510;51.362;7.370;2023-05-07T08:49:28;23.00;99.90
12885;DHT22;6510;51.362;7.370;2023-05-07T08:51:53;22.50;99.90
12885;DHT22;6510;51.362;7.370;2023-05-07T08:54:21;22.70;99.90
12885;DHT22;6510;51.362;7.370;2023-05-07T08:56:47;21.90;99.90
12885;DHT22;6510;51.362;7.370;2023-05-07T08:59:13;20.90;99.90
12885;DHT22;6510;51.362;7.370;2023-05-07T09:01:39;21.20;99.90
12885;DHT22;6510;51.362;7.370;2023-05-07T09:04:05;21.50;99.90
12885;DHT22;6510;51.362;7.370;2023-05-07T09:06:32;21.40;99.90
12885;DHT22;6510;51.362;7.370;2023-05-07T09:08:58;21.10;99.90
12885;DHT22;6510;51.362;7.370;2023-05-07T09:11:26;21.00;99.90
12885;DHT22;6510;51.362;7.370;2023-05-07T09:13:56;21.20;99.90
12885;DHT22;6510;51.362;7.370;2023-05-07T09:16:25;21.40;99.90
12885;DHT22;6510;51.362;7.370;2023-05-07T09:18:52;21.90;99.90
12885;DHT22;6510;51.362;7.370;2023-05-07T09:21:21;23.00;99.90
12885;DHT22;6510;51.362;7.370;2023-05-07T09:23:50;22.90;99.90
12885;DHT22;6510;51.362;7.370;2023-05-07T09:26:16;23.60;99.90
12885;DHT22;6510;51.362;7.370;2023-05-07T09:28:41;23.70;99.90
12885;DHT22;6510;51.362;7.370;2023-05-07T09:31:09;23.20;99.90
12885;DHT22;6510;51.362;7.370;2023-05-07T09:33:35;23.60;99.90
12885;DHT22;6510;51.362;7.370;2023-05-07T09:36:05;24.50;99.90
12885;DHT22;6510;51.362;7.370;2023-05-07T09:38:32;25.40;99.90
12885;DHT22;6510;51.362;7.370;2023-05-07T09:41:09;25.60;99.90
12885;DHT22;6510;51.362;7.370;2023-05-07T09:43:36;26.10;99.90
12885;DHT22;6510;51.362;7.370;2023-05-07T09:46:06;26.80;99.90
12885;DHT22;6510;51.362;7.370;2023-05-07T09:48:35;26.70;99.90
12885;DHT22;6510;51.362;7.370;2023-05-07T09:51:02;26.30;99.90
12885;DHT22;6510;51.362;7.370;2023-05-07T09:53:33;26.00;99.90
12885;DHT22;6510;51.362;7.370;2023-05-07T09:55:59;24.50;99.90
12885;DHT22;6510;51.362;7.370;2023-05-07T09:58:26;24.00;99.90
12885;DHT22;6510;51.362;7.370;2023-05-07T10:00:52;22.70;99.90
12885;DHT22;6510;51.362;7.370;2023-05-07T10:03:19;22.60;99.90
12885;DHT22;6510;51.362;7.370;2023-05-07T10:05:46;22.60;99.90
12885;DHT22;6510;51.362;7.370;2023-05-07T10:08:13;22.60;99.90
12885;DHT22;6510;51.362;7.370;2023-05-07T10:10:40;22.60;99.90
12885;DHT22;6510;51.362;7.370;2023-05-07T10:13:06;22.40;99.90
12885;DHT22;6510;51.362;7.370;2023-05-07T10:15:36;22.50;99.90
12885;DHT22;6510;51.362;7.370;2023-05-07T10:18:04;22.50;99.90
12885;DHT22;6510;51.362;7.370;2023-05-07T10:20:33;22.40;99.90
12885;DHT22;6510;51.362;7.370;2023-05-07T10:22:59;22.90;99.90
12885;DHT22;6510;51.362;7.370;2023-05-07T10:25:32;22.90;99.90
12885;DHT22;6510;51.362;7.370;2023-05-07T10:28:03;22.70;99.90
12885;DHT22;6510;51.362;7.370;2023-05-07T10:30:53;23.30;99.90
12885;DHT22;6510;51.362;7.370;2023-05-07T10:33:28;23.40;99.90
12885;DHT22;6510;51.362;7.370;2023-05-07T10:36:01;24.90;99.90
12885;DHT22;6510;51.362;7.370;2023-05-07T10:38:32;25.60;99.90
12885;DHT22;6510;51.362;7.370;2023-05-07T10:40:58;25.30;99.90
12885;DHT22;6510;51.362;7.370;2023-05-07T10:43:23;24.60;99.90
12885;DHT22;6510;51.362;7.370;2023-05-07T10:46:10;24.80;99.90
12885;DHT22;6510;51.362;7.370;2023-05-07T10:51:30;25.10;99.90
12885;DHT22;6510;51.362;7.370;2023-05-07T10:56:38;25.30;99.90
12885;DHT22;6510;51.362;7.370;2023-05-07T11:01:59;25.00;99.90
12885;DHT22;6510;51.362;7.370;2023-05-07T11:04:25;25.90;99.90
12885;DHT22;6510;51.362;7.370;2023-05-07T11:10:00;25.90;99.90
12885;DHT22;6510;51.362;7.370;2023-05-07T11:15:08;27.00;99.90
12885;DHT22;6510;51.362;7.370;2023-05-07T11:20:19;24.90;99.90
12885;DHT22;6510;51.362;7.370;2023-05-07T11:22:46;25.00;99.90
12885;DHT22;6510;51.362;7.370;2023-05-07T11:25:17;24.80;99.90
12885;DHT22;6510;51.362;7.370;2023-05-07T11:27:47;24.10;99.90
12885;DHT22;6510;51.362;7.370;2023-05-07T11:30:18;23.50;99.90
12885;DHT22;6510;51.362;7.370;2023-05-07T11:32:47;23.10;99.90
12885;DHT22;6510;51.362;7.370;2023-05-07T11:35:14;22.60;99.90
12885;DHT22;6510;51.362;7.370;2023-05-07T11:37:40;22.70;99.90
12885;DHT22;6510;51.362;7.370;2023-05-07T11:40:07;22.30;99.90
12885;DHT22;6510;51.362;7.370;2023-05-07T11:42:36;22.50;99.90
12885;DHT22;6510;51.362;7.370;2023-05-07T11:45:03;22.60;99.90
12885;DHT22;6510;51.362;7.370;2023-05-07T11:47:33;22.50;99.90
12885;DHT22;6510;51.362;7.370;2023-05-07T11:50:04;22.50;99.90
12885;DHT22;6510;51.362;7.370;2023-05-07T11:52:30;22.10;99.90
12885;DHT22;6510;51.362;7.370;2023-05-07T11:54:57;22.40;99.90
12885;DHT22;6510;51.362;7.370;2023-05-07T11:57:25;22.10;99.90
12885;DHT22;6510;51.362;7.370;2023-05-07T11:59:58;21.80;99.90
12885;DHT22;6510;51.362;7.370;2023-05-07T12:02:24;21.90;99.90
12885;DHT22;6510;51.362;7.370;2023-05-07T12:04:54;21.90;99.90
12885;DHT22;6510;51.362;7.370;2023-05-07T12:07:24;21.60;99.90
12885;DHT22;6510;51.362;7.370;2023-05-07T12:09:50;21.50;99.90
12885;DHT22;6510;51.362;7.370;2023-05-07T12:12:15;21.10;99.90
12885;DHT22;6510;51.362;7.370;2023-05-07T12:14:43;21.00;99.90
12885;DHT22;6510;51.362;7.370;2023-05-07T12:17:11;21.00;99.90
12885;DHT22;6510;51.362;7.370;2023-05-07T12:19:41;20.90;99.90
12885;DHT22;6510;51.362;7.370;2023-05-07T12:22:09;20.60;99.90
12885;DHT22;6510;51.362;7.370;2023-05-07T12:24:48;20.30;99.90
12885;DHT22;6510;51.362;7.370;2023-05-07T12:27:15;20.30;99.90
12885;DHT22;6510;51.362;7.370;2023-05-07T12:29:48;20.20;99.90
12885;DHT22;6510;51.362;7.370;2023-05-07T12:32:18;20.10;99.90
12885;DHT22;6510;51.362;7.370;2023-05-07T12:34:45;20.00;99.90
12885;DHT22;6510;51.362;7.370;2023-05-07T12:37:11;19.90;99.90
12885;DHT22;6510;51.362;7.370;2023-05-07T12:39:38;19.70;99.90
12885;DHT22;6510;51.362;7.370;2023-05-07T12:42:04;19.70;99.90
12885;DHT22;6510;51.362;7.370;2023-05-07T12:44:35;19.50;99.90
12885;DHT22;6510;51.362;7.370;2023-05-07T12:47:03;19.40;99.90
12885;DHT22;6510;51.362;7.370;2023-05-07T12:49:29;19.20;99.90
12885;DHT22;6510;51.362;7.370;2023-05-07T12:51:55;18.90;99.90
12885;DHT22;6510;51.362;7.370;2023-05-07T12:54:29;18.50;99.90
12885;DHT22;6510;51.362;7.370;2023-05-07T12:57:13;18.70;99.90
12885;DHT22;6510;51.362;7.370;2023-05-07T12:59:42;18.10;99.90
12885;DHT22;6510;51.362;7.370;2023-05-07T13:02:08;18.00;99.90
12885;DHT22;6510;51.362;7.370;2023-05-07T13:04:34;17.90;99.90
12885;DHT22;6510;51.362;7.370;2023-05-07T13:07:01;17.80;99.90
12885;DHT22;6510;51.362;7.370;2023-05-07T13:09:28;17.70;99.90
12885;DHT22;6510;51.362;7.370;2023-05-07T13:11:57;17.80;99.90
12885;DHT22;6510;51.362;7.370;2023-05-07T13:14:25;17.70;99.90
12885;DHT22;6510;51.362;7.370;2023-05-07T13:16:50;17.70;99.90
12885;DHT22;6510;51.362;7.370;2023-05-07T13:19:16;17.60;99.90
12885;DHT22;6510;51.362;7.370;2023-05-07T13:21:42;17.70;99.90
12885;DHT22;6510;51.362;7.370;2023-05-07T13:24:08;17.30;99.90
12885;DHT22;6510;51.362;7.370;2023-05-07T13:26:34;17.40;99.90
12885;DHT22;6510;51.362;7.370;2023-05-07T13:29:00;17.50;99.90
12885;DHT22;6510;51.362;7.370;2023-05-07T13:31:25;17.60;99.90
12885;DHT22;6510;51.362;7.370;2023-05-07T13:33:51;17.80;99.90
12885;DHT22;6510;51.362;7.370;2023-05-07T13:36:18;17.60;99.90
12885;DHT22;6510;51.362;7.370;2023-05-07T13:38:43;17.70;99.90
12885;DHT22;6510;51.362;7.370;2023-05-07T13:41:09;17.70;99.90
12885;DHT22;6510;51.362;7.370;2023-05-07T13:43:34;17.90;99.90
12885;DHT22;6510;51.362;7.370;2023-05-07T13:46:00;17.70;99.90
12885;DHT22;6510;51.362;7.370;2023-05-07T13:48:26;17.90;99.90
12885;DHT22;6510;51.362;7.370;2023-05-07T13:50:53;18.00;99.90
12885;DHT22;6510;51.362;7.370;2023-05-07T13:53:19;18.00;99.90
12885;DHT22;6510;51.362;7.370;2023-05-07T13:55:45;18.10;99.90
12885;DHT22;6510;51.362;7.370;2023-05-07T13:58:10;18.10;99.90
12885;DHT22;6510;51.362;7.370;2023-05-07T14:00:36;18.10;99.90
12885;DHT22;6510;51.362;7.370;2023-05-07T14:03:04;18.10;99.90
12885;DHT22;6510;51.362;7.370;2023-05-07T14:05:30;17.80;99.90
12885;DHT22;6510;51.362;7.370;2023-05-07T14:07:57;17.70;99.90
12885;DHT22;6510;51.362;7.370;2023-05-07T14:10:23;17.70;99.90
12885;DHT22;6510;51.362;7.370;2023-05-07T14:12:49;17.60;99.90
12885;DHT22;6510;51.362;7.370;2023-05-07T14:15:15;17.60;99.90
12885;DHT22;6510;51.362;7.370;2023-05-07T14:17:41;17.40;99.90
12885;DHT22;6510;51.362;7.370;2023-05-07T14:20:08;17.40;99.90
12885;DHT22;6510;51.362;7.370;2023-05-07T14:22:33;17.60;99.90
12885;DHT22;6510;51.362;7.370;2023-05-07T14:24:59;17.50;99.90
12885;DHT22;6510;51.362;7.370;2023-05-07T14:27:25;17.30;99.90
12885;DHT22;6510;51.362;7.370;2023-05-07T14:29:50;17.10;99.90
12885;DHT22;6510;51.362;7.370;2023-05-07T14:32:19;17.00;99.90
12885;DHT22;6510;51.362;7.370;2023-05-07T14:34:45;16.90;99.90
12885;DHT22;6510;51.362;7.370;2023-05-07T14:37:13;17.10;99.90
12885;DHT22;6510;51.362;7.370;2023-05-07T14:39:38;17.10;99.90
12885;DHT22;6510;51.362;7.370;2023-05-07T14:42:04;17.00;99.90
12885;DHT22;6510;51.362;7.370;2023-05-07T14:44:30;17.20;99.90
12885;DHT22;6510;51.362;7.370;2023-05-07T14:46:56;17.20;99.90
12885;DHT22;6510;51.362;7.370;2023-05-07T14:49:22;17.10;99.90
12885;DHT22;6510;51.362;7.370;2023-05-07T14:51:49;17.10;99.90
12885;DHT22;6510;51.362;7.370;2023-05-07T14:54:15;17.10;99.90
12885;DHT22;6510;51.362;7.370;2023-05-07T14:56:41;17.10;99.90
12885;DHT22;6510;51.362;7.370;2023-05-07T14:59:07;17.00;99.90
12885;DHT22;6510;51.362;7.370;2023-05-07T15:01:34;17.10;99.90
12885;DHT22;6510;51.362;7.370;2023-05-07T15:04:01;17.10;99.90
12885;DHT22;6510;51.362;7.370;2023-05-07T15:06:28;17.10;99.90
12885;DHT22;6510;51.362;7.370;2023-05-07T15:08:54;17.10;99.90
12885;DHT22;6510;51.362;7.370;2023-05-07T15:11:20;17.00;99.90
12885;DHT22;6510;51.362;7.370;2023-05-07T15:13:45;17.00;99.90
12885;DHT22;6510;51.362;7.370;2023-05-07T15:16:11;16.70;99.90
12885;DHT22;6510;51.362;7.370;2023-05-07T15:18:37;16.60;99.90
12885;DHT22;6510;51.362;7.370;2023-05-07T15:21:02;16.60;99.90
12885;DHT22;6510;51.362;7.370;2023-05-07T15:23:28;16.70;99.90
12885;DHT22;6510;51.362;7.370;2023-05-07T15:25:54;16.60;99.90
12885;DHT22;6510;51.362;7.370;2023-05-07T15:28:19;16.60;99.90
12885;DHT22;6510;51.362;7.370;2023-05-07T15:30:45;16.50;99.90
12885;DHT22;6510;51.362;7.370;2023-05-07T15:33:11;16.50;99.90
12885;DHT22;6510;51.362;7.370;2023-05-07T15:35:36;16.60;99.90
12885;DHT22;6510;51.362;7.370;2023-05-07T15:38:02;16.60;99.90
12885;DHT22;6510;51.362;7.370;2023-05-07T15:40:28;16.60;99.90
12885;DHT22;6510;51.362;7.370;2023-05-07T15:42:55;16.60;99.90
12885;DHT22;6510;51.362;7.370;2023-05-07T15:45:21;16.50;99.90
12885;DHT22;6510;51.362;7.370;2023-05-07T15:47:47;16.50;99.90
12885;DHT22;6510;51.362;7.370;2023-05-07T15:50:12;16.40;99.90
12885;DHT22;6510;51.362;7.370;2023-05-07T15:52:38;16.60;99.90
12885;DHT22;6510;51.362;7.370;2023-05-07T15:55:04;16.60;99.90
12885;DHT22;6510;51.362;7.370;2023-05-07T15:57:31;16.50;99.90